sensor_id;sensor_type;location;lat;lon;timestamp;temperature;humidity
15717;DHT22;7960;50.908;4.204;2023-07-20T00:00:09;17.20;99.90
15717;DHT22;7960;50.908;4.204;2023-07-20T00:02:38;17.20;99.90
15717;DHT22;7960;50.908;4.204;2023-07-20T00:05:05;17.20;99.90
15717;DHT22;7960;50.908;4.204;2023-07-20T00:07:32;17.20;99.90
15717;DHT22;7960;50.908;4.204;2023-07-20T00:09:59;17.20;99.90
15717;DHT22;7960;50.908;4.204;2023-07-20T00:12:26;17.30;99.90
15717;DHT22;7960;50.908;4.204;2023-07-20T00:14:57;17.30;99.90
15717;DHT22;7960;50.908;4.204;2023-07-20T00:17:24;17.30;99.90
15717;DHT22;7960;50.908;4.204;2023-07-20T00:19:51;17.30;99.90
15717;DHT22;7960;50.908;4.204;2023-07-20T00:22:18;17.20;99.90
15717;DHT22;7960;50.908;4.204;2023-07-20T00:24:45;17.20;99.90
15717;DHT22;7960;50.908;4.204;2023-07-20T00:27:11;17.20;99.90
15717;DHT22;7960;50.908;4.204;2023-07-20T00:29:38;17.20;99.90
15717;DHT22;7960;50.908;4.204;2023-07-20T00:32:07;17.30;99.90
15717;DHT22;7960;50.908;4.204;2023-07-20T00:34:34;17.30;99.90
15717;DHT22;7960;50.908;4.204;2023-07-20T00:37:01;17.30;99.90
15717;DHT22;7960;50.908;4.204;2023-07-20T00:39:28;17.30;99.90
15717;DHT22;7960;50.908;4.204;2023-07-20T00:41:54;17.30;99.90
15717;DHT22;7960;50.908;4.204;2023-07-20T00:44:21;17.40;99.90
15717;DHT22;7960;50.908;4.204;2023-07-20T00:46:48;17.30;99.90
15717;DHT22;7960;50.908;4.204;2023-07-20T00:49:16;17.30;99.90
15717;DHT22;7960;50.908;4.204;2023-07-20T00:51:47;17.10;99.90
15717;DHT22;7960;50.908;4.204;2023-07-20T00:54:14;17.20;99.90
15717;DHT22;7960;50.908;4.204;2023-07-20T00:56:41;17.30;99.90
15717;DHT22;7960;50.908;4.204;2023-07-20T00:59:08;17.20;99.90
15717;DHT22;7960;50.908;4.204;2023-07-20T01:01:35;17.30;99.90
15717;DHT22;7960;50.908;4.204;2023-07-20T01:04:02;17.20;99.90
15717;DHT22;7960;50.908;4.204;2023-07-20T01:06:36;17.30;99.90
15717;DHT22;7960;50.908;4.204;2023-07-20T01:09:12;17.30;99.90
15717;DHT22;7960;50.908;4.204;2023-07-20T01:11:46;17.20;99.90
15717;DHT22;7960;50.908;4.204;2023-07-20T01:14:16;17.20;99.90
15717;DHT22;7960;50.908;4.204;2023-07-20T01:16:43;17.10;99.90
15717;DHT22;7960;50.908;4.204;2023-07-20T01:19:11;17.10;99.90
15717;DHT22;7960;50.908;4.204;2023-07-20T01:21:42;17.10;99.90
15717;DHT22;7960;50.908;4.204;2023-07-20T01:24:25;17.20;99.90
15717;DHT22;7960;50.908;4.204;2023-07-20T01:27:15;17.10;99.90
15717;DHT22;7960;50.908;4.204;2023-07-20T01:30:00;17.00;99.90
15717;DHT22;7960;50.908;4.204;2023-07-20T01:32:31;17.10;99.90
15717;DHT22;7960;50.908;4.204;2023-07-20T01:34:58;17.20;99.90
15717;DHT22;7960;50.908;4.204;2023-07-20T01:37:27;17.10;99.90
15717;DHT22;7960;50.908;4.204;2023-07-20T01:39:55;17.10;99.90
15717;DHT22;7960;50.908;4.204;2023-07-20T01:42:22;17.10;99.90
15717;DHT22;7960;50.908;4.204;2023-07-20T01:44:51;17.10;99.90
15717;DHT22;7960;50.908;4.204;2023-07-20T01:47:19;17.10;99.90
15717;DHT22;7960;50.908;4.204;2023-07-20T01:49:47;17.00;99.90
15717;DHT22;7960;50.908;4.204;2023-07-20T01:52:14;16.80;99.90
15717;DHT22;7960;50.908;4.204;2023-07-20T01:54:41;16.70;99.90
15717;DHT22;7960;50.908;4.204;2023-07-20T01:57:07;16.60;99.90
15717;DHT22;7960;50.908;4.204;2023-07-20T01:59:34;16.60;99.90
15717;DHT22;7960;50.908;4.204;2023-07-20T02:02:01;16.70;99.90
15717;DHT22;7960;50.908;4.204;2023-07-20T02:04:28;16.80;99.90
15717;DHT22;7960;50.908;4.204;2023-07-20T02:06:56;16.70;99.90
15717;DHT22;7960;50.908;4.204;2023-07-20T02:09:23;16.80;99.90
15717;DHT22;7960;50.908;4.204;2023-07-20T02:11:50;16.90;99.90
15717;DHT22;7960;50.908;4.204;2023-07-20T02:14:16;16.70;99.90
15717;DHT22;7960;50.908;4.204;2023-07-20T02:16:43;16.90;99.90
15717;DHT22;7960;50.908;4.204;2023-07-20T02:19:10;16.80;99.90
15717;DHT22;7960;50.908;4.204;2023-07-20T02:21:37;16.60;99.90
15717;DHT22;7960;50.908;4.204;2023-07-20T02:24:06;16.70;99.90
15717;DHT22;7960;50.908;4.204;2023-07-20T02:26:33;16.80;99.90
15717;DHT22;7960;50.908;4.204;2023-07-20T02:28:59;16.70;99.90
15717;DHT22;7960;50.908;4.204;2023-07-20T02:31:27;16.80;99.90
15717;DHT22;7960;50.908;4.204;2023-07-20T02:33:54;16.90;99.90
15717;DHT22;7960;50.908;4.204;2023-07-20T02:36:21;17.00;99.90
15717;DHT22;7960;50.908;4.204;2023-07-20T02:38:48;16.80;99.90
15717;DHT22;7960;50.908;4.204;2023-07-20T02:41:17;16.80;99.90
15717;DHT22;7960;50.908;4.204;2023-07-20T02:43:43;16.90;99.90
15717;DHT22;7960;50.908;4.204;2023-07-20T02:46:10;16.80;99.90
15717;DHT22;7960;50.908;4.204;2023-07-20T02:48:37;16.60;99.90
15717;DHT22;7960;50.908;4.204;2023-07-20T02:51:04;16.70;99.90
15717;DHT22;7960;50.908;4.204;2023-07-20T02:53:31;16.60;99.90
15717;DHT22;7960;50.908;4.204;2023-07-20T02:55:58;16.70;99.90
15717;DHT22;7960;50.908;4.204;2023-07-20T02:58:27;16.70;99.90
15717;DHT22;7960;50.908;4.204;2023-07-20T03:00:55;16.50;99.90
15717;DHT22;7960;50.908;4.204;2023-07-20T03:03:22;16.60;99.90
15717;DHT22;7960;50.908;4.204;2023-07-20T03:05:49;16.60;99.90
15717;DHT22;7960;50.908;4.204;2023-07-20T03:08:20;16.50;99.90
15717;DHT22;7960;50.908;4.204;2023-07-20T03:10:46;16.60;99.90
15717;DHT22;7960;50.908;4.204;2023-07-20T03:13:13;16.80;99.90
15717;DHT22;7960;50.908;4.204;2023-07-20T03:15:43;16.70;99.90
15717;DHT22;7960;50.908;4.204;2023-07-20T03:18:09;16.70;99.90
15717;DHT22;7960;50.908;4.204;2023-07-20T03:20:36;16.70;99.90
15717;DHT22;7960;50.908;4.204;2023-07-20T03:23:03;16.70;99.90
15717;DHT22;7960;50.908;4.204;2023-07-20T03:25:30;16.80;99.90
15717;DHT22;7960;50.908;4.204;2023-07-20T03:27:57;16.80;99.90
15717;DHT22;7960;50.908;4.204;2023-07-20T03:30:23;16.50;99.90
15717;DHT22;7960;50.908;4.204;2023-07-20T03:32:52;16.50;99.90
15717;DHT22;7960;50.908;4.204;2023-07-20T03:35:19;16.60;99.90
15717;DHT22;7960;50.908;4.204;2023-07-20T03:37:46;16.70;99.90
15717;DHT22;7960;50.908;4.204;2023-07-20T03:40:13;16.60;99.90
15717;DHT22;7960;50.908;4.204;2023-07-20T03:42:41;16.60;99.90
15717;DHT22;7960;50.908;4.204;2023-07-20T03:45:08;16.70;99.90
15717;DHT22;7960;50.908;4.204;2023-07-20T03:47:35;16.50;99.90
15717;DHT22;7960;50.908;4.204;2023-07-20T03:50:04;16.60;99.90
15717;DHT22;7960;50.908;4.204;2023-07-20T03:52:31;16.60;99.90
15717;DHT22;7960;50.908;4.204;2023-07-20T03:54:58;16.80;99.90
15717;DHT22;7960;50.908;4.204;2023-07-20T03:57:25;16.70;99.90
15717;DHT22;7960;50.908;4.204;2023-07-20T03:59:51;16.80;99.90
15717;DHT22;7960;50.908;4.204;2023-07-20T04:02:18;16.80;99.90
15717;DHT22;7960;50.908;4.204;2023-07-20T04:04:45;16.60;99.90
15717;DHT22;7960;50.908;4.204;2023-07-20T04:07:13;16.60;99.90
15717;DHT22;7960;50.908;4.204;2023-07-20T04:09:40;16.60;99.90
15717;DHT22;7960;50.908;4.204;2023-07-20T04:12:07;16.50;99.90
15717;DHT22;7960;50.908;4.204;2023-07-20T04:14:34;16.30;99.90
15717;DHT22;7960;50.908;4.204;2023-07-20T04:17:01;16.30;99.90
15717;DHT22;7960;50.908;4.204;2023-07-20T04:19:29;16.20;99.90
15717;DHT22;7960;50.908;4.204;2023-07-20T04:21:55;16.20;99.90
15717;DHT22;7960;50.908;4.204;2023-07-20T04:24:24;16.20;99.90
15717;DHT22;7960;50.908;4.204;2023-07-20T04:26:51;16.30;99.90
15717;DHT22;7960;50.908;4.204;2023-07-20T04:29:17;16.40;99.90
15717;DHT22;7960;50.908;4.204;2023-07-20T04:31:44;16.30;99.90
15717;DHT22;7960;50.908;4.204;2023-07-20T04:34:11;16.40;99.90
15717;DHT22;7960;50.908;4.204;2023-07-20T04:36:38;16.50;99.90
15717;DHT22;7960;50.908;4.204;2023-07-20T04:39:05;16.40;99.90
15717;DHT22;7960;50.908;4.204;2023-07-20T04:41:35;16.40;99.90
15717;DHT22;7960;50.908;4.204;2023-07-20T04:44:02;16.60;99.90
15717;DHT22;7960;50.908;4.204;2023-07-20T04:46:29;16.70;99.90
15717;DHT22;7960;50.908;4.204;2023-07-20T04:48:56;16.70;99.90
15717;DHT22;7960;50.908;4.204;2023-07-20T04:51:23;16.60;99.90
15717;DHT22;7960;50.908;4.204;2023-07-20T04:53:50;16.60;99.90
15717;DHT22;7960;50.908;4.204;2023-07-20T04:56:17;16.50;99.90
15717;DHT22;7960;50.908;4.204;2023-07-20T04:58:45;16.60;99.90
15717;DHT22;7960;50.908;4.204;2023-07-20T05:01:12;16.70;99.90
15717;DHT22;7960;50.908;4.204;2023-07-20T05:03:39;16.70;99.90
15717;DHT22;7960;50.908;4.204;2023-07-20T05:06:05;16.80;99.90
15717;DHT22;7960;50.908;4.204;2023-07-20T05:08:32;16.70;99.90
15717;DHT22;7960;50.908;4.204;2023-07-20T05:11:02;16.70;99.90
15717;DHT22;7960;50.908;4.204;2023-07-20T05:13:38;16.60;99.90
15717;DHT22;7960;50.908;4.204;2023-07-20T05:16:06;16.70;99.90
15717;DHT22;7960;50.908;4.204;2023-07-20T05:18:33;16.80;99.90
15717;DHT22;7960;50.908;4.204;2023-07-20T05:21:00;16.70;99.90
15717;DHT22;7960;50.908;4.204;2023-07-20T05:23:27;16.70;99.90
15717;DHT22;7960;50.908;4.204;2023-07-20T05:25:54;16.80;99.90
15717;DHT22;7960;50.908;4.204;2023-07-20T05:28:21;16.80;99.90
15717;DHT22;7960;50.908;4.204;2023-07-20T05:30:49;16.70;99.90
15717;DHT22;7960;50.908;4.204;2023-07-20T05:33:18;16.60;99.90
15717;DHT22;7960;50.908;4.204;2023-07-20T05:35:45;16.60;99.90
15717;DHT22;7960;50.908;4.204;2023-07-20T05:38:12;16.70;99.90
15717;DHT22;7960;50.908;4.204;2023-07-20T05:40:40;16.60;99.90
15717;DHT22;7960;50.908;4.204;2023-07-20T05:43:08;16.60;99.90
15717;DHT22;7960;50.908;4.204;2023-07-20T05:45:35;16.60;99.90
15717;DHT22;7960;50.908;4.204;2023-07-20T05:48:04;16.60;99.90
15717;DHT22;7960;50.908;4.204;2023-07-20T05:50:32;16.50;99.90
15717;DHT22;7960;50.908;4.204;2023-07-20T05:52:59;16.60;99.90
15717;DHT22;7960;50.908;4.204;2023-07-20T05:55:27;16.60;99.90
15717;DHT22;7960;50.908;4.204;2023-07-20T05:57:54;16.70;99.90
15717;DHT22;7960;50.908;4.204;2023-07-20T06:00:22;16.60;99.90
15717;DHT22;7960;50.908;4.204;2023-07-20T06:02:52;16.60;99.90
15717;DHT22;7960;50.908;4.204;2023-07-20T06:05:20;16.70;99.90
15717;DHT22;7960;50.908;4.204;2023-07-20T06:07:49;16.70;99.90
15717;DHT22;7960;50.908;4.204;2023-07-20T06:10:15;16.70;99.90
15717;DHT22;7960;50.908;4.204;2023-07-20T06:12:42;16.70;99.90
15717;DHT22;7960;50.908;4.204;2023-07-20T06:15:25;16.80;99.90
15717;DHT22;7960;50.908;4.204;2023-07-20T06:17:53;16.90;99.90
15717;DHT22;7960;50.908;4.204;2023-07-20T06:20:19;17.20;99.90
15717;DHT22;7960;50.908;4.204;2023-07-20T06:22:46;17.10;99.90
15717;DHT22;7960;50.908;4.204;2023-07-20T06:25:14;17.10;99.90
15717;DHT22;7960;50.908;4.204;2023-07-20T06:27:42;16.90;99.90
15717;DHT22;7960;50.908;4.204;2023-07-20T06:30:10;16.90;99.90
15717;DHT22;7960;50.908;4.204;2023-07-20T06:32:38;17.00;99.90
15717;DHT22;7960;50.908;4.204;2023-07-20T06:35:06;17.00;99.90
15717;DHT22;7960;50.908;4.204;2023-07-20T06:37:34;17.10;99.90
15717;DHT22;7960;50.908;4.204;2023-07-20T06:40:01;17.10;99.90
15717;DHT22;7960;50.908;4.204;2023-07-20T06:42:30;17.10;99.90
15717;DHT22;7960;50.908;4.204;2023-07-20T06:44:57;17.10;99.90
15717;DHT22;7960;50.908;4.204;2023-07-20T06:47:26;17.20;99.90
15717;DHT22;7960;50.908;4.204;2023-07-20T06:49:53;17.30;99.90
15717;DHT22;7960;50.908;4.204;2023-07-20T06:52:20;17.40;99.90
15717;DHT22;7960;50.908;4.204;2023-07-20T06:54:47;17.60;99.90
15717;DHT22;7960;50.908;4.204;2023-07-20T06:57:14;17.60;99.90
15717;DHT22;7960;50.908;4.204;2023-07-20T06:59:42;17.70;99.90
15717;DHT22;7960;50.908;4.204;2023-07-20T07:02:09;17.70;99.90
15717;DHT22;7960;50.908;4.204;2023-07-20T07:04:36;17.80;99.90
15717;DHT22;7960;50.908;4.204;2023-07-20T07:07:04;17.90;99.90
15717;DHT22;7960;50.908;4.204;2023-07-20T07:09:31;18.00;99.90
15717;DHT22;7960;50.908;4.204;2023-07-20T07:11:58;18.20;99.90
15717;DHT22;7960;50.908;4.204;2023-07-20T07:14:25;18.10;99.90
15717;DHT22;7960;50.908;4.204;2023-07-20T07:16:53;17.90;99.90
15717;DHT22;7960;50.908;4.204;2023-07-20T07:19:20;17.90;99.90
15717;DHT22;7960;50.908;4.204;2023-07-20T07:21:47;18.00;99.90
15717;DHT22;7960;50.908;4.204;2023-07-20T07:24:13;17.80;99.90
15717;DHT22;7960;50.908;4.204;2023-07-20T07:26:43;17.90;99.90
15717;DHT22;7960;50.908;4.204;2023-07-20T07:29:10;17.90;99.90
15717;DHT22;7960;50.908;4.204;2023-07-20T07:31:37;18.00;99.90
15717;DHT22;7960;50.908;4.204;2023-07-20T07:34:05;18.10;99.90
15717;DHT22;7960;50.908;4.204;2023-07-20T07:36:33;18.10;99.90
15717;DHT22;7960;50.908;4.204;2023-07-20T07:39:02;18.20;99.90
15717;DHT22;7960;50.908;4.204;2023-07-20T07:41:29;18.40;99.90
15717;DHT22;7960;50.908;4.204;2023-07-20T07:43:56;18.30;99.90
15717;DHT22;7960;50.908;4.204;2023-07-20T07:46:23;18.40;99.90
15717;DHT22;7960;50.908;4.204;2023-07-20T07:48:50;18.50;99.90
15717;DHT22;7960;50.908;4.204;2023-07-20T07:51:18;18.50;99.90
15717;DHT22;7960;50.908;4.204;2023-07-20T07:53:46;18.80;99.90
15717;DHT22;7960;50.908;4.204;2023-07-20T07:56:14;18.90;99.90
15717;DHT22;7960;50.908;4.204;2023-07-20T07:58:42;19.00;99.90
15717;DHT22;7960;50.908;4.204;2023-07-20T08:01:09;19.00;99.90
15717;DHT22;7960;50.908;4.204;2023-07-20T08:03:35;19.00;99.90
15717;DHT22;7960;50.908;4.204;2023-07-20T08:06:02;19.00;99.90
15717;DHT22;7960;50.908;4.204;2023-07-20T08:08:31;19.00;99.90
15717;DHT22;7960;50.908;4.204;2023-07-20T08:10:58;19.00;99.90
15717;DHT22;7960;50.908;4.204;2023-07-20T08:13:25;19.20;99.90
15717;DHT22;7960;50.908;4.204;2023-07-20T08:15:53;19.10;99.90
15717;DHT22;7960;50.908;4.204;2023-07-20T08:18:19;19.10;99.90
15717;DHT22;7960;50.908;4.204;2023-07-20T08:20:47;19.20;99.90
15717;DHT22;7960;50.908;4.204;2023-07-20T08:23:15;19.10;99.90
15717;DHT22;7960;50.908;4.204;2023-07-20T08:25:43;19.30;99.90
15717;DHT22;7960;50.908;4.204;2023-07-20T08:28:10;19.20;99.90
15717;DHT22;7960;50.908;4.204;2023-07-20T08:30:41;19.30;99.90
15717;DHT22;7960;50.908;4.204;2023-07-20T08:33:09;19.30;99.90
15717;DHT22;7960;50.908;4.204;2023-07-20T08:35:36;19.10;99.90
15717;DHT22;7960;50.908;4.204;2023-07-20T08:38:03;19.00;99.90
15717;DHT22;7960;50.908;4.204;2023-07-20T08:40:31;18.90;99.90
15717;DHT22;7960;50.908;4.204;2023-07-20T08:43:00;18.90;99.90
15717;DHT22;7960;50.908;4.204;2023-07-20T08:45:27;18.90;99.90
15717;DHT22;7960;50.908;4.204;2023-07-20T08:47:56;18.80;99.90
15717;DHT22;7960;50.908;4.204;2023-07-20T08:50:26;18.80;99.90
15717;DHT22;7960;50.908;4.204;2023-07-20T08:52:57;18.80;99.90
15717;DHT22;7960;50.908;4.204;2023-07-20T08:55:24;18.90;99.90
15717;DHT22;7960;50.908;4.204;2023-07-20T08:57:54;19.10;99.90
15717;DHT22;7960;50.908;4.204;2023-07-20T09:00:24;19.20;99.90
15717;DHT22;7960;50.908;4.204;2023-07-20T09:02:52;19.10;99.90
15717;DHT22;7960;50.908;4.204;2023-07-20T09:05:20;19.40;99.90
15717;DHT22;7960;50.908;4.204;2023-07-20T09:07:47;19.60;99.90
15717;DHT22;7960;50.908;4.204;2023-07-20T09:10:14;19.70;99.90
15717;DHT22;7960;50.908;4.204;2023-07-20T09:12:42;19.70;99.90
15717;DHT22;7960;50.908;4.204;2023-07-20T09:15:10;19.60;99.90
15717;DHT22;7960;50.908;4.204;2023-07-20T09:17:39;19.70;99.90
15717;DHT22;7960;50.908;4.204;2023-07-20T09:20:07;19.70;99.90
15717;DHT22;7960;50.908;4.204;2023-07-20T09:22:36;19.70;99.90
15717;DHT22;7960;50.908;4.204;2023-07-20T09:25:06;19.90;99.90
15717;DHT22;7960;50.908;4.204;2023-07-20T09:27:37;19.90;99.90
15717;DHT22;7960;50.908;4.204;2023-07-20T09:30:05;20.00;99.90
15717;DHT22;7960;50.908;4.204;2023-07-20T09:32:39;20.30;99.90
15717;DHT22;7960;50.908;4.204;2023-07-20T09:35:10;20.50;99.90
15717;DHT22;7960;50.908;4.204;2023-07-20T09:37:39;20.50;99.90
15717;DHT22;7960;50.908;4.204;2023-07-20T09:40:07;20.20;99.90
15717;DHT22;7960;50.908;4.204;2023-07-20T09:42:36;20.30;99.90
15717;DHT22;7960;50.908;4.204;2023-07-20T09:45:07;20.40;99.90
15717;DHT22;7960;50.908;4.204;2023-07-20T09:47:36;20.40;99.90
15717;DHT22;7960;50.908;4.204;2023-07-20T09:50:06;20.50;99.90
15717;DHT22;7960;50.908;4.204;2023-07-20T09:52:38;20.60;99.90
15717;DHT22;7960;50.908;4.204;2023-07-20T09:55:06;20.40;99.90
15717;DHT22;7960;50.908;4.204;2023-07-20T09:57:34;20.50;99.90
15717;DHT22;7960;50.908;4.204;2023-07-20T10:00:01;21.00;99.90
15717;DHT22;7960;50.908;4.204;2023-07-20T10:02:33;21.40;99.90
15717;DHT22;7960;50.908;4.204;2023-07-20T10:05:03;21.60;99.60
15717;DHT22;7960;50.908;4.204;2023-07-20T10:07:33;21.60;99.30
15717;DHT22;7960;50.908;4.204;2023-07-20T10:10:03;21.70;99.10
15717;DHT22;7960;50.908;4.204;2023-07-20T10:12:31;21.80;98.70
15717;DHT22;7960;50.908;4.204;2023-07-20T10:15:07;22.00;97.20
15717;DHT22;7960;50.908;4.204;2023-07-20T10:17:37;22.50;96.80
15717;DHT22;7960;50.908;4.204;2023-07-20T10:20:07;22.20;95.60
15717;DHT22;7960;50.908;4.204;2023-07-20T10:22:38;22.10;94.30
15717;DHT22;7960;50.908;4.204;2023-07-20T10:25:06;21.70;94.60
15717;DHT22;7960;50.908;4.204;2023-07-20T10:27:34;21.90;95.50
15717;DHT22;7960;50.908;4.204;2023-07-20T10:30:01;22.00;95.90
15717;DHT22;7960;50.908;4.204;2023-07-20T10:32:30;22.20;95.50
15717;DHT22;7960;50.908;4.204;2023-07-20T10:34:57;22.20;95.40
15717;DHT22;7960;50.908;4.204;2023-07-20T10:37:48;22.20;96.30
15717;DHT22;7960;50.908;4.204;2023-07-20T10:40:31;22.00;96.50
15717;DHT22;7960;50.908;4.204;2023-07-20T10:43:03;22.10;95.80
15717;DHT22;7960;50.908;4.204;2023-07-20T10:45:51;22.20;95.70
15717;DHT22;7960;50.908;4.204;2023-07-20T10:48:19;22.00;95.70
15717;DHT22;7960;50.908;4.204;2023-07-20T10:51:10;22.10;95.70
15717;DHT22;7960;50.908;4.204;2023-07-20T10:53:39;22.20;95.60
15717;DHT22;7960;50.908;4.204;2023-07-20T10:56:06;22.10;95.40
15717;DHT22;7960;50.908;4.204;2023-07-20T10:58:34;21.90;95.70
15717;DHT22;7960;50.908;4.204;2023-07-20T11:01:01;22.10;96.10
15717;DHT22;7960;50.908;4.204;2023-07-20T11:03:29;21.90;95.20
15717;DHT22;7960;50.908;4.204;2023-07-20T11:05:57;21.80;95.20
15717;DHT22;7960;50.908;4.204;2023-07-20T11:08:42;21.40;95.70
15717;DHT22;7960;50.908;4.204;2023-07-20T11:11:21;21.60;96.60
15717;DHT22;7960;50.908;4.204;2023-07-20T11:13:56;21.60;96.20
15717;DHT22;7960;50.908;4.204;2023-07-20T11:16:37;21.60;96.20
15717;DHT22;7960;50.908;4.204;2023-07-20T11:19:05;21.10;96.00
15717;DHT22;7960;50.908;4.204;2023-07-20T11:21:37;21.20;96.80
15717;DHT22;7960;50.908;4.204;2023-07-20T11:24:06;21.30;96.90
15717;DHT22;7960;50.908;4.204;2023-07-20T11:26:42;21.40;97.20
15717;DHT22;7960;50.908;4.204;2023-07-20T11:29:09;21.40;96.90
15717;DHT22;7960;50.908;4.204;2023-07-20T11:31:37;21.50;97.00
15717;DHT22;7960;50.908;4.204;2023-07-20T11:34:04;21.60;96.60
15717;DHT22;7960;50.908;4.204;2023-07-20T11:36:31;21.70;96.60
15717;DHT22;7960;50.908;4.204;2023-07-20T11:38:58;21.80;96.30
15717;DHT22;7960;50.908;4.204;2023-07-20T11:41:27;21.90;96.20
15717;DHT22;7960;50.908;4.204;2023-07-20T11:43:54;21.80;95.50
15717;DHT22;7960;50.908;4.204;2023-07-20T11:46:21;21.80;95.90
15717;DHT22;7960;50.908;4.204;2023-07-20T11:48:48;21.90;95.80
15717;DHT22;7960;50.908;4.204;2023-07-20T11:51:16;22.30;95.60
15717;DHT22;7960;50.908;4.204;2023-07-20T11:53:44;22.50;95.40
15717;DHT22;7960;50.908;4.204;2023-07-20T11:56:11;22.50;94.20
15717;DHT22;7960;50.908;4.204;2023-07-20T11:58:44;22.60;94.20
15717;DHT22;7960;50.908;4.204;2023-07-20T12:01:12;22.40;93.90
15717;DHT22;7960;50.908;4.204;2023-07-20T12:03:39;22.50;93.30
15717;DHT22;7960;50.908;4.204;2023-07-20T12:06:08;22.50;92.90
15717;DHT22;7960;50.908;4.204;2023-07-20T12:08:38;22.50;93.60
15717;DHT22;7960;50.908;4.204;2023-07-20T12:11:05;22.60;94.00
15717;DHT22;7960;50.908;4.204;2023-07-20T12:13:36;22.70;93.80
15717;DHT22;7960;50.908;4.204;2023-07-20T12:16:09;22.70;93.80
15717;DHT22;7960;50.908;4.204;2023-07-20T12:18:37;22.60;93.80
15717;DHT22;7960;50.908;4.204;2023-07-20T12:21:06;22.50;93.30
15717;DHT22;7960;50.908;4.204;2023-07-20T12:23:37;22.40;93.60
15717;DHT22;7960;50.908;4.204;2023-07-20T12:26:06;22.30;93.70
15717;DHT22;7960;50.908;4.204;2023-07-20T12:28:38;22.40;93.30
15717;DHT22;7960;50.908;4.204;2023-07-20T12:31:05;22.40;93.10
15717;DHT22;7960;50.908;4.204;2023-07-20T12:33:33;22.20;93.20
15717;DHT22;7960;50.908;4.204;2023-07-20T12:36:00;21.90;93.70
15717;DHT22;7960;50.908;4.204;2023-07-20T12:38:27;21.90;93.60
15717;DHT22;7960;50.908;4.204;2023-07-20T12:40:56;21.80;93.70
15717;DHT22;7960;50.908;4.204;2023-07-20T12:43:24;21.60;93.80
15717;DHT22;7960;50.908;4.204;2023-07-20T12:45:51;21.70;93.80
15717;DHT22;7960;50.908;4.204;2023-07-20T12:48:18;21.70;94.30
15717;DHT22;7960;50.908;4.204;2023-07-20T12:50:46;21.80;94.20
15717;DHT22;7960;50.908;4.204;2023-07-20T12:53:13;21.90;94.00
15717;DHT22;7960;50.908;4.204;2023-07-20T12:55:40;21.90;93.70
15717;DHT22;7960;50.908;4.204;2023-07-20T12:58:07;21.80;93.80
15717;DHT22;7960;50.908;4.204;2023-07-20T13:00:34;21.80;94.00
15717;DHT22;7960;50.908;4.204;2023-07-20T13:03:01;21.80;94.10
15717;DHT22;7960;50.908;4.204;2023-07-20T13:05:30;21.80;94.50
15717;DHT22;7960;50.908;4.204;2023-07-20T13:07:59;21.80;94.60
15717;DHT22;7960;50.908;4.204;2023-07-20T13:10:26;21.60;94.50
15717;DHT22;7960;50.908;4.204;2023-07-20T13:12:53;21.50;94.80
15717;DHT22;7960;50.908;4.204;2023-07-20T13:15:20;21.40;95.20
15717;DHT22;7960;50.908;4.204;2023-07-20T13:17:47;21.50;95.60
15717;DHT22;7960;50.908;4.204;2023-07-20T13:20:13;21.60;96.00
15717;DHT22;7960;50.908;4.204;2023-07-20T13:22:40;21.50;96.10
15717;DHT22;7960;50.908;4.204;2023-07-20T13:25:09;21.40;96.40
15717;DHT22;7960;50.908;4.204;2023-07-20T13:27:36;21.00;97.30
15717;DHT22;7960;50.908;4.204;2023-07-20T13:30:05;21.00;97.70
15717;DHT22;7960;50.908;4.204;2023-07-20T13:32:35;20.80;98.10
15717;DHT22;7960;50.908;4.204;2023-07-20T13:35:02;20.60;98.30
15717;DHT22;7960;50.908;4.204;2023-07-20T13:37:29;20.40;98.50
15717;DHT22;7960;50.908;4.204;2023-07-20T13:39:56;20.60;99.40
15717;DHT22;7960;50.908;4.204;2023-07-20T13:42:25;20.70;99.90
15717;DHT22;7960;50.908;4.204;2023-07-20T13:44:52;20.80;99.90
15717;DHT22;7960;50.908;4.204;2023-07-20T13:47:19;20.70;99.70
15717;DHT22;7960;50.908;4.204;2023-07-20T13:49:46;20.80;99.50
15717;DHT22;7960;50.908;4.204;2023-07-20T13:52:13;20.80;99.10
15717;DHT22;7960;50.908;4.204;2023-07-20T13:54:39;20.90;99.00
15717;DHT22;7960;50.908;4.204;2023-07-20T13:57:06;20.90;99.10
15717;DHT22;7960;50.908;4.204;2023-07-20T13:59:35;20.90;99.40
15717;DHT22;7960;50.908;4.204;2023-07-20T14:02:02;21.10;99.50
15717;DHT22;7960;50.908;4.204;2023-07-20T14:04:29;21.20;99.30
15717;DHT22;7960;50.908;4.204;2023-07-20T14:06:55;21.40;99.20
15717;DHT22;7960;50.908;4.204;2023-07-20T14:09:22;21.50;99.10
15717;DHT22;7960;50.908;4.204;2023-07-20T14:11:49;21.90;98.60
15717;DHT22;7960;50.908;4.204;2023-07-20T14:14:16;22.40;98.30
15717;DHT22;7960;50.908;4.204;2023-07-20T14:16:44;23.00;97.20
15717;DHT22;7960;50.908;4.204;2023-07-20T14:19:11;23.50;95.60
15717;DHT22;7960;50.908;4.204;2023-07-20T14:21:38;23.90;94.70
15717;DHT22;7960;50.908;4.204;2023-07-20T14:24:05;24.20;94.10
15717;DHT22;7960;50.908;4.204;2023-07-20T14:26:32;24.00;92.60
15717;DHT22;7960;50.908;4.204;2023-07-20T14:28:58;23.60;92.10
15717;DHT22;7960;50.908;4.204;2023-07-20T14:31:26;23.20;92.70
15717;DHT22;7960;50.908;4.204;2023-07-20T14:33:54;22.90;93.70
15717;DHT22;7960;50.908;4.204;2023-07-20T14:36:21;22.90;93.90
15717;DHT22;7960;50.908;4.204;2023-07-20T14:38:48;22.70;93.90
15717;DHT22;7960;50.908;4.204;2023-07-20T14:41:16;22.70;94.00
15717;DHT22;7960;50.908;4.204;2023-07-20T14:43:43;22.70;93.20
15717;DHT22;7960;50.908;4.204;2023-07-20T14:46:10;22.60;93.20
15717;DHT22;7960;50.908;4.204;2023-07-20T14:48:37;22.60;93.80
15717;DHT22;7960;50.908;4.204;2023-07-20T14:51:05;22.70;93.60
15717;DHT22;7960;50.908;4.204;2023-07-20T14:53:32;22.60;93.60
15717;DHT22;7960;50.908;4.204;2023-07-20T14:56:00;22.10;93.10
15717;DHT22;7960;50.908;4.204;2023-07-20T14:58:27;22.00;93.60
15717;DHT22;7960;50.908;4.204;2023-07-20T15:00:54;22.00;93.70
15717;DHT22;7960;50.908;4.204;2023-07-20T15:03:20;22.00;93.60
15717;DHT22;7960;50.908;4.204;2023-07-20T15:05:47;21.90;93.60
15717;DHT22;7960;50.908;4.204;2023-07-20T15:08:15;22.00;94.30
15717;DHT22;7960;50.908;4.204;2023-07-20T15:10:42;22.10;94.60
15717;DHT22;7960;50.908;4.204;2023-07-20T15:13:11;21.80;94.40
15717;DHT22;7960;50.908;4.204;2023-07-20T15:15:38;21.80;94.50
15717;DHT22;7960;50.908;4.204;2023-07-20T15:18:05;21.90;94.50
15717;DHT22;7960;50.908;4.204;2023-07-20T15:20:32;21.80;94.70
15717;DHT22;7960;50.908;4.204;2023-07-20T15:22:59;21.60;95.40
15717;DHT22;7960;50.908;4.204;2023-07-20T15:25:27;21.10;96.80
15717;DHT22;7960;50.908;4.204;2023-07-20T15:27:54;20.80;98.70
15717;DHT22;7960;50.908;4.204;2023-07-20T15:30:21;20.70;99.90
15717;DHT22;7960;50.908;4.204;2023-07-20T15:32:48;20.50;99.90
15717;DHT22;7960;50.908;4.204;2023-07-20T15:35:15;20.20;99.90
15717;DHT22;7960;50.908;4.204;2023-07-20T15:37:43;19.80;99.90
15717;DHT22;7960;50.908;4.204;2023-07-20T15:40:11;19.60;99.90
15717;DHT22;7960;50.908;4.204;2023-07-20T15:42:39;19.40;99.90
15717;DHT22;7960;50.908;4.204;2023-07-20T15:45:07;19.10;99.90
15717;DHT22;7960;50.908;4.204;2023-07-20T15:47:34;19.10;99.90
15717;DHT22;7960;50.908;4.204;2023-07-20T15:50:01;19.10;99.90